sensor_id;sensor_type;location;lat;lon;timestamp;temperature;humidity
50606;DHT22;36557;53.572;10.170;2023-07-24T00:01:19;17.40;99.90
50606;DHT22;36557;53.572;10.170;2023-07-24T00:03:45;17.40;99.90
50606;DHT22;36557;53.572;10.170;2023-07-24T00:06:11;17.30;99.90
50606;DHT22;36557;53.572;10.170;2023-07-24T00:08:38;17.30;99.90
50606;DHT22;36557;53.572;10.170;2023-07-24T00:11:07;17.40;99.90
50606;DHT22;36557;53.572;10.170;2023-07-24T00:13:33;17.40;99.90
50606;DHT22;36557;53.572;10.170;2023-07-24T00:15:59;17.40;99.90
50606;DHT22;36557;53.572;10.170;2023-07-24T00:18:24;17.20;99.90
50606;DHT22;36557;53.572;10.170;2023-07-24T00:20:50;17.20;99.90
50606;DHT22;36557;53.572;10.170;2023-07-24T00:23:16;17.40;99.90
50606;DHT22;36557;53.572;10.170;2023-07-24T00:25:41;17.40;99.90
50606;DHT22;36557;53.572;10.170;2023-07-24T00:28:07;17.50;99.90
50606;DHT22;36557;53.572;10.170;2023-07-24T00:30:33;17.30;99.90
50606;DHT22;36557;53.572;10.170;2023-07-24T00:32:59;17.20;99.90
50606;DHT22;36557;53.572;10.170;2023-07-24T00:35:25;17.40;99.90
50606;DHT22;36557;53.572;10.170;2023-07-24T00:37:52;17.30;99.90
50606;DHT22;36557;53.572;10.170;2023-07-24T00:40:17;17.40;99.90
50606;DHT22;36557;53.572;10.170;2023-07-24T00:42:48;17.40;99.90
50606;DHT22;36557;53.572;10.170;2023-07-24T00:45:15;17.20;99.90
50606;DHT22;36557;53.572;10.170;2023-07-24T00:47:42;17.50;99.90
50606;DHT22;36557;53.572;10.170;2023-07-24T00:50:08;17.50;99.90
50606;DHT22;36557;53.572;10.170;2023-07-24T00:52:34;17.40;99.90
50606;DHT22;36557;53.572;10.170;2023-07-24T00:55:00;17.10;99.90
50606;DHT22;36557;53.572;10.170;2023-07-24T00:57:26;17.20;99.90
50606;DHT22;36557;53.572;10.170;2023-07-24T00:59:52;17.20;99.90
50606;DHT22;36557;53.572;10.170;2023-07-24T01:02:18;17.10;99.90
50606;DHT22;36557;53.572;10.170;2023-07-24T01:04:44;17.10;99.90
50606;DHT22;36557;53.572;10.170;2023-07-24T01:07:10;17.00;99.90
50606;DHT22;36557;53.572;10.170;2023-07-24T01:09:36;17.10;99.90
50606;DHT22;36557;53.572;10.170;2023-07-24T01:12:07;17.20;99.90
50606;DHT22;36557;53.572;10.170;2023-07-24T01:14:47;17.20;99.90
50606;DHT22;36557;53.572;10.170;2023-07-24T01:17:16;17.30;99.90
50606;DHT22;36557;53.572;10.170;2023-07-24T01:19:52;17.20;99.90
50606;DHT22;36557;53.572;10.170;2023-07-24T01:27:45;17.30;99.90
50606;DHT22;36557;53.572;10.170;2023-07-24T01:30:13;17.40;99.90
50606;DHT22;36557;53.572;10.170;2023-07-24T01:32:39;17.60;99.90
50606;DHT22;36557;53.572;10.170;2023-07-24T01:35:05;17.50;99.90
50606;DHT22;36557;53.572;10.170;2023-07-24T01:37:32;17.30;99.90
50606;DHT22;36557;53.572;10.170;2023-07-24T01:39:59;17.30;99.90
50606;DHT22;36557;53.572;10.170;2023-07-24T01:42:25;17.30;99.90
50606;DHT22;36557;53.572;10.170;2023-07-24T01:44:55;17.40;99.90
50606;DHT22;36557;53.572;10.170;2023-07-24T01:47:21;17.50;99.90
50606;DHT22;36557;53.572;10.170;2023-07-24T01:49:48;17.50;99.90
50606;DHT22;36557;53.572;10.170;2023-07-24T01:52:13;17.40;99.90
50606;DHT22;36557;53.572;10.170;2023-07-24T01:54:39;17.30;99.90
50606;DHT22;36557;53.572;10.170;2023-07-24T01:57:05;17.50;99.90
50606;DHT22;36557;53.572;10.170;2023-07-24T01:59:31;17.30;99.90
50606;DHT22;36557;53.572;10.170;2023-07-24T02:01:56;17.30;99.90
50606;DHT22;36557;53.572;10.170;2023-07-24T02:04:22;17.40;99.90
50606;DHT22;36557;53.572;10.170;2023-07-24T02:06:49;17.50;99.90
50606;DHT22;36557;53.572;10.170;2023-07-24T02:09:15;17.60;99.90
50606;DHT22;36557;53.572;10.170;2023-07-24T02:11:41;17.30;99.90
50606;DHT22;36557;53.572;10.170;2023-07-24T02:14:07;17.60;99.90
50606;DHT22;36557;53.572;10.170;2023-07-24T02:16:33;17.60;99.90
50606;DHT22;36557;53.572;10.170;2023-07-24T02:18:58;17.50;99.90
50606;DHT22;36557;53.572;10.170;2023-07-24T02:21:24;17.40;99.90
50606;DHT22;36557;53.572;10.170;2023-07-24T02:23:50;17.60;99.90
50606;DHT22;36557;53.572;10.170;2023-07-24T02:26:16;17.50;99.90
50606;DHT22;36557;53.572;10.170;2023-07-24T02:28:41;17.40;99.90
50606;DHT22;36557;53.572;10.170;2023-07-24T02:31:07;17.60;99.90
50606;DHT22;36557;53.572;10.170;2023-07-24T02:33:33;17.60;99.90
50606;DHT22;36557;53.572;10.170;2023-07-24T02:36:00;17.60;99.90
50606;DHT22;36557;53.572;10.170;2023-07-24T02:38:26;17.50;99.90
50606;DHT22;36557;53.572;10.170;2023-07-24T02:40:51;17.40;99.90
50606;DHT22;36557;53.572;10.170;2023-07-24T02:43:17;17.70;99.90
50606;DHT22;36557;53.572;10.170;2023-07-24T02:45:43;17.70;99.90
50606;DHT22;36557;53.572;10.170;2023-07-24T02:48:08;17.50;99.90
50606;DHT22;36557;53.572;10.170;2023-07-24T02:50:34;17.50;99.90
50606;DHT22;36557;53.572;10.170;2023-07-24T02:53:00;17.80;99.90
50606;DHT22;36557;53.572;10.170;2023-07-24T02:55:26;17.50;99.90
50606;DHT22;36557;53.572;10.170;2023-07-24T02:57:51;17.70;99.90
50606;DHT22;36557;53.572;10.170;2023-07-24T03:00:17;17.60;99.90
50606;DHT22;36557;53.572;10.170;2023-07-24T03:02:43;17.40;99.90
50606;DHT22;36557;53.572;10.170;2023-07-24T03:05:09;17.70;99.90
50606;DHT22;36557;53.572;10.170;2023-07-24T03:07:35;17.50;99.90
50606;DHT22;36557;53.572;10.170;2023-07-24T03:10:01;17.40;99.90
50606;DHT22;36557;53.572;10.170;2023-07-24T03:12:27;17.50;99.90
50606;DHT22;36557;53.572;10.170;2023-07-24T03:14:52;17.30;99.90
50606;DHT22;36557;53.572;10.170;2023-07-24T03:17:18;17.50;99.90
50606;DHT22;36557;53.572;10.170;2023-07-24T03:19:44;17.30;99.90
50606;DHT22;36557;53.572;10.170;2023-07-24T03:22:09;17.50;99.90
50606;DHT22;36557;53.572;10.170;2023-07-24T03:24:35;17.40;99.90
50606;DHT22;36557;53.572;10.170;2023-07-24T03:27:01;17.60;99.90
50606;DHT22;36557;53.572;10.170;2023-07-24T03:29:27;17.40;99.90
50606;DHT22;36557;53.572;10.170;2023-07-24T03:31:53;17.60;99.90
50606;DHT22;36557;53.572;10.170;2023-07-24T03:34:19;17.40;99.90
50606;DHT22;36557;53.572;10.170;2023-07-24T03:36:44;17.50;99.90
50606;DHT22;36557;53.572;10.170;2023-07-24T03:39:10;17.70;99.90
50606;DHT22;36557;53.572;10.170;2023-07-24T03:41:42;17.70;99.90
50606;DHT22;36557;53.572;10.170;2023-07-24T03:44:08;17.70;99.90
50606;DHT22;36557;53.572;10.170;2023-07-24T03:46:34;17.60;99.90
50606;DHT22;36557;53.572;10.170;2023-07-24T03:49:00;17.60;99.90
50606;DHT22;36557;53.572;10.170;2023-07-24T03:51:26;17.60;99.90
50606;DHT22;36557;53.572;10.170;2023-07-24T03:53:52;17.70;99.90
50606;DHT22;36557;53.572;10.170;2023-07-24T03:56:17;17.60;99.90
50606;DHT22;36557;53.572;10.170;2023-07-24T03:58:43;17.80;99.90
50606;DHT22;36557;53.572;10.170;2023-07-24T04:01:09;17.60;99.90
50606;DHT22;36557;53.572;10.170;2023-07-24T04:03:35;17.70;99.90
50606;DHT22;36557;53.572;10.170;2023-07-24T04:06:01;17.50;99.90
50606;DHT22;36557;53.572;10.170;2023-07-24T04:08:27;17.70;99.90
50606;DHT22;36557;53.572;10.170;2023-07-24T04:10:52;17.60;99.90
50606;DHT22;36557;53.572;10.170;2023-07-24T04:13:18;17.40;99.90
50606;DHT22;36557;53.572;10.170;2023-07-24T04:15:44;17.70;99.90
50606;DHT22;36557;53.572;10.170;2023-07-24T04:18:10;17.40;99.90
50606;DHT22;36557;53.572;10.170;2023-07-24T04:20:37;17.40;99.90
50606;DHT22;36557;53.572;10.170;2023-07-24T04:23:03;17.50;99.90
50606;DHT22;36557;53.572;10.170;2023-07-24T04:25:29;17.60;99.90
50606;DHT22;36557;53.572;10.170;2023-07-24T04:27:54;17.70;99.90
50606;DHT22;36557;53.572;10.170;2023-07-24T04:30:20;17.70;99.90
50606;DHT22;36557;53.572;10.170;2023-07-24T04:32:46;17.50;99.90
50606;DHT22;36557;53.572;10.170;2023-07-24T04:35:12;17.60;99.90
50606;DHT22;36557;53.572;10.170;2023-07-24T04:37:37;17.60;99.90
50606;DHT22;36557;53.572;10.170;2023-07-24T04:40:04;17.80;99.90
50606;DHT22;36557;53.572;10.170;2023-07-24T04:42:30;17.90;99.90
50606;DHT22;36557;53.572;10.170;2023-07-24T04:44:56;18.30;99.90
50606;DHT22;36557;53.572;10.170;2023-07-24T04:47:22;18.30;99.90
50606;DHT22;36557;53.572;10.170;2023-07-24T04:49:48;18.40;99.90
50606;DHT22;36557;53.572;10.170;2023-07-24T04:52:13;18.50;99.90
50606;DHT22;36557;53.572;10.170;2023-07-24T04:54:39;18.60;99.90
50606;DHT22;36557;53.572;10.170;2023-07-24T04:57:05;18.60;99.90
50606;DHT22;36557;53.572;10.170;2023-07-24T04:59:30;18.50;99.90
50606;DHT22;36557;53.572;10.170;2023-07-24T05:01:56;18.40;99.90
50606;DHT22;36557;53.572;10.170;2023-07-24T05:04:22;18.30;99.90
50606;DHT22;36557;53.572;10.170;2023-07-24T05:06:47;18.40;99.90
50606;DHT22;36557;53.572;10.170;2023-07-24T05:09:13;18.50;99.90
50606;DHT22;36557;53.572;10.170;2023-07-24T05:11:40;18.40;99.90
50606;DHT22;36557;53.572;10.170;2023-07-24T05:14:08;18.40;99.90
50606;DHT22;36557;53.572;10.170;2023-07-24T05:16:34;18.40;99.90
50606;DHT22;36557;53.572;10.170;2023-07-24T05:19:00;18.30;99.90
50606;DHT22;36557;53.572;10.170;2023-07-24T05:21:25;18.10;99.90
50606;DHT22;36557;53.572;10.170;2023-07-24T05:23:51;18.20;99.90
50606;DHT22;36557;53.572;10.170;2023-07-24T05:26:17;18.30;99.90
50606;DHT22;36557;53.572;10.170;2023-07-24T05:28:42;18.20;99.90
50606;DHT22;36557;53.572;10.170;2023-07-24T05:31:08;18.30;99.90
50606;DHT22;36557;53.572;10.170;2023-07-24T05:33:34;18.30;99.90
50606;DHT22;36557;53.572;10.170;2023-07-24T05:36:04;18.30;99.90
50606;DHT22;36557;53.572;10.170;2023-07-24T05:38:30;18.40;99.90
50606;DHT22;36557;53.572;10.170;2023-07-24T05:41:00;18.40;99.90
50606;DHT22;36557;53.572;10.170;2023-07-24T05:43:27;18.40;99.90
50606;DHT22;36557;53.572;10.170;2023-07-24T05:45:55;18.40;99.90
50606;DHT22;36557;53.572;10.170;2023-07-24T05:48:21;18.50;99.90
50606;DHT22;36557;53.572;10.170;2023-07-24T05:50:47;18.50;99.90
50606;DHT22;36557;53.572;10.170;2023-07-24T05:53:14;18.80;99.90
50606;DHT22;36557;53.572;10.170;2023-07-24T05:55:40;18.80;99.90
50606;DHT22;36557;53.572;10.170;2023-07-24T05:58:06;18.60;99.90
50606;DHT22;36557;53.572;10.170;2023-07-24T06:00:32;18.70;99.90
50606;DHT22;36557;53.572;10.170;2023-07-24T06:02:58;18.60;99.90
50606;DHT22;36557;53.572;10.170;2023-07-24T06:05:23;18.50;99.90
50606;DHT22;36557;53.572;10.170;2023-07-24T06:07:49;18.60;99.90
50606;DHT22;36557;53.572;10.170;2023-07-24T06:10:15;18.40;99.90
50606;DHT22;36557;53.572;10.170;2023-07-24T06:12:41;18.40;99.90
50606;DHT22;36557;53.572;10.170;2023-07-24T06:15:06;18.30;99.90
50606;DHT22;36557;53.572;10.170;2023-07-24T06:17:32;18.30;99.90
50606;DHT22;36557;53.572;10.170;2023-07-24T06:19:58;18.50;99.90
50606;DHT22;36557;53.572;10.170;2023-07-24T06:22:24;18.40;99.90
50606;DHT22;36557;53.572;10.170;2023-07-24T06:24:50;18.60;99.90
50606;DHT22;36557;53.572;10.170;2023-07-24T06:27:16;18.70;99.90
50606;DHT22;36557;53.572;10.170;2023-07-24T06:29:42;18.80;99.90
50606;DHT22;36557;53.572;10.170;2023-07-24T06:32:07;19.00;99.90
50606;DHT22;36557;53.572;10.170;2023-07-24T06:34:34;19.00;99.90
50606;DHT22;36557;53.572;10.170;2023-07-24T06:37:00;19.20;99.90
50606;DHT22;36557;53.572;10.170;2023-07-24T06:39:26;19.20;99.90
50606;DHT22;36557;53.572;10.170;2023-07-24T06:41:52;19.30;99.90
50606;DHT22;36557;53.572;10.170;2023-07-24T06:44:18;19.00;99.90
50606;DHT22;36557;53.572;10.170;2023-07-24T06:46:44;19.10;99.90
50606;DHT22;36557;53.572;10.170;2023-07-24T06:49:09;19.00;99.90
50606;DHT22;36557;53.572;10.170;2023-07-24T06:51:36;19.00;99.90
50606;DHT22;36557;53.572;10.170;2023-07-24T06:54:04;19.20;99.90
50606;DHT22;36557;53.572;10.170;2023-07-24T06:56:30;19.40;99.90
50606;DHT22;36557;53.572;10.170;2023-07-24T06:58:55;19.30;99.90
50606;DHT22;36557;53.572;10.170;2023-07-24T07:01:21;19.40;99.90
50606;DHT22;36557;53.572;10.170;2023-07-24T07:03:47;19.30;99.90
50606;DHT22;36557;53.572;10.170;2023-07-24T07:06:12;19.20;99.90
50606;DHT22;36557;53.572;10.170;2023-07-24T07:08:38;19.20;99.90
50606;DHT22;36557;53.572;10.170;2023-07-24T07:11:04;19.20;99.90
50606;DHT22;36557;53.572;10.170;2023-07-24T07:13:29;19.30;99.90
50606;DHT22;36557;53.572;10.170;2023-07-24T07:15:55;19.20;99.90
50606;DHT22;36557;53.572;10.170;2023-07-24T07:18:21;19.10;99.90
50606;DHT22;36557;53.572;10.170;2023-07-24T07:20:48;19.20;99.90
50606;DHT22;36557;53.572;10.170;2023-07-24T07:23:14;19.10;99.90
50606;DHT22;36557;53.572;10.170;2023-07-24T07:25:40;19.00;99.90
50606;DHT22;36557;53.572;10.170;2023-07-24T07:28:06;19.00;99.90
50606;DHT22;36557;53.572;10.170;2023-07-24T07:30:31;18.90;99.90
50606;DHT22;36557;53.572;10.170;2023-07-24T07:32:57;18.80;99.90
50606;DHT22;36557;53.572;10.170;2023-07-24T07:35:23;19.00;99.90
50606;DHT22;36557;53.572;10.170;2023-07-24T07:37:48;18.90;99.90
50606;DHT22;36557;53.572;10.170;2023-07-24T07:40:14;19.10;99.90
50606;DHT22;36557;53.572;10.170;2023-07-24T07:42:40;19.20;99.90
50606;DHT22;36557;53.572;10.170;2023-07-24T07:45:06;19.30;99.90
50606;DHT22;36557;53.572;10.170;2023-07-24T07:47:32;19.10;99.90
50606;DHT22;36557;53.572;10.170;2023-07-24T07:52:31;19.40;99.90
50606;DHT22;36557;53.572;10.170;2023-07-24T07:54:57;19.70;99.90
50606;DHT22;36557;53.572;10.170;2023-07-24T07:57:23;19.80;99.90
50606;DHT22;36557;53.572;10.170;2023-07-24T07:59:49;19.90;99.90
50606;DHT22;36557;53.572;10.170;2023-07-24T08:02:14;19.90;99.90
50606;DHT22;36557;53.572;10.170;2023-07-24T08:04:40;20.00;99.90
50606;DHT22;36557;53.572;10.170;2023-07-24T08:07:06;20.00;99.90
50606;DHT22;36557;53.572;10.170;2023-07-24T08:09:32;20.10;99.90
50606;DHT22;36557;53.572;10.170;2023-07-24T08:11:59;20.10;99.90
50606;DHT22;36557;53.572;10.170;2023-07-24T08:14:25;20.20;99.90
50606;DHT22;36557;53.572;10.170;2023-07-24T08:16:51;20.20;99.90
50606;DHT22;36557;53.572;10.170;2023-07-24T08:19:18;20.10;99.90
50606;DHT22;36557;53.572;10.170;2023-07-24T08:21:43;20.10;99.90
50606;DHT22;36557;53.572;10.170;2023-07-24T08:24:10;20.10;99.90
50606;DHT22;36557;53.572;10.170;2023-07-24T08:26:35;20.10;99.90
50606;DHT22;36557;53.572;10.170;2023-07-24T08:29:01;20.20;99.90
50606;DHT22;36557;53.572;10.170;2023-07-24T08:31:29;20.20;99.90
50606;DHT22;36557;53.572;10.170;2023-07-24T08:33:55;20.20;99.90
50606;DHT22;36557;53.572;10.170;2023-07-24T08:36:20;20.20;99.90
50606;DHT22;36557;53.572;10.170;2023-07-24T08:38:46;20.30;99.90
50606;DHT22;36557;53.572;10.170;2023-07-24T08:41:14;20.50;99.90
50606;DHT22;36557;53.572;10.170;2023-07-24T08:43:43;20.70;99.90
50606;DHT22;36557;53.572;10.170;2023-07-24T08:46:09;20.90;99.90
50606;DHT22;36557;53.572;10.170;2023-07-24T08:48:40;20.90;99.90
50606;DHT22;36557;53.572;10.170;2023-07-24T08:51:11;20.90;99.90
50606;DHT22;36557;53.572;10.170;2023-07-24T08:53:39;20.90;99.90
50606;DHT22;36557;53.572;10.170;2023-07-24T08:56:07;20.90;99.90
50606;DHT22;36557;53.572;10.170;2023-07-24T08:58:33;20.80;99.90
50606;DHT22;36557;53.572;10.170;2023-07-24T09:01:01;20.70;99.90
50606;DHT22;36557;53.572;10.170;2023-07-24T09:03:27;20.60;99.90
50606;DHT22;36557;53.572;10.170;2023-07-24T09:05:55;20.80;99.90
50606;DHT22;36557;53.572;10.170;2023-07-24T09:08:31;20.90;99.90
50606;DHT22;36557;53.572;10.170;2023-07-24T09:10:59;21.00;99.90
50606;DHT22;36557;53.572;10.170;2023-07-24T09:13:24;21.20;99.90
50606;DHT22;36557;53.572;10.170;2023-07-24T09:15:50;21.50;99.90
50606;DHT22;36557;53.572;10.170;2023-07-24T09:18:16;21.50;99.90
50606;DHT22;36557;53.572;10.170;2023-07-24T09:20:44;21.40;99.90
50606;DHT22;36557;53.572;10.170;2023-07-24T09:23:11;21.40;99.90
50606;DHT22;36557;53.572;10.170;2023-07-24T09:25:39;21.70;99.90
50606;DHT22;36557;53.572;10.170;2023-07-24T09:28:12;21.70;99.90
50606;DHT22;36557;53.572;10.170;2023-07-24T09:30:39;21.90;99.90
50606;DHT22;36557;53.572;10.170;2023-07-24T09:33:05;21.70;99.90
50606;DHT22;36557;53.572;10.170;2023-07-24T09:35:31;21.60;99.90
50606;DHT22;36557;53.572;10.170;2023-07-24T09:38:05;21.70;99.90
50606;DHT22;36557;53.572;10.170;2023-07-24T09:43:20;22.20;99.90
50606;DHT22;36557;53.572;10.170;2023-07-24T09:45:49;22.50;99.90
50606;DHT22;36557;53.572;10.170;2023-07-24T09:48:16;22.70;99.90
50606;DHT22;36557;53.572;10.170;2023-07-24T09:50:46;22.50;99.90
50606;DHT22;36557;53.572;10.170;2023-07-24T09:53:35;22.70;99.90
50606;DHT22;36557;53.572;10.170;2023-07-24T09:56:08;23.00;99.90
50606;DHT22;36557;53.572;10.170;2023-07-24T09:58:39;22.50;99.90
50606;DHT22;36557;53.572;10.170;2023-07-24T10:01:09;22.80;99.90
50606;DHT22;36557;53.572;10.170;2023-07-24T10:03:38;22.80;99.90
50606;DHT22;36557;53.572;10.170;2023-07-24T10:06:04;23.10;99.90
50606;DHT22;36557;53.572;10.170;2023-07-24T10:08:31;23.10;99.90
50606;DHT22;36557;53.572;10.170;2023-07-24T10:10:58;23.10;99.90
50606;DHT22;36557;53.572;10.170;2023-07-24T10:13:26;22.90;99.90
50606;DHT22;36557;53.572;10.170;2023-07-24T10:15:52;22.20;99.90
50606;DHT22;36557;53.572;10.170;2023-07-24T10:18:28;22.30;99.90
50606;DHT22;36557;53.572;10.170;2023-07-24T10:21:06;22.30;99.90
50606;DHT22;36557;53.572;10.170;2023-07-24T10:23:43;22.50;99.90
50606;DHT22;36557;53.572;10.170;2023-07-24T10:26:09;22.40;99.90
50606;DHT22;36557;53.572;10.170;2023-07-24T10:28:37;22.40;99.90
50606;DHT22;36557;53.572;10.170;2023-07-24T10:31:22;22.30;99.90
50606;DHT22;36557;53.572;10.170;2023-07-24T10:33:48;22.60;99.90
50606;DHT22;36557;53.572;10.170;2023-07-24T10:36:19;22.80;99.90
50606;DHT22;36557;53.572;10.170;2023-07-24T10:38:51;22.90;99.90
50606;DHT22;36557;53.572;10.170;2023-07-24T10:41:17;22.90;99.90
50606;DHT22;36557;53.572;10.170;2023-07-24T10:43:51;23.10;99.90
50606;DHT22;36557;53.572;10.170;2023-07-24T10:46:19;23.30;99.90
50606;DHT22;36557;53.572;10.170;2023-07-24T10:48:47;22.90;99.90
50606;DHT22;36557;53.572;10.170;2023-07-24T10:51:14;22.70;99.90
50606;DHT22;36557;53.572;10.170;2023-07-24T10:53:48;22.70;99.90
50606;DHT22;36557;53.572;10.170;2023-07-24T10:56:15;22.70;99.90
50606;DHT22;36557;53.572;10.170;2023-07-24T10:58:41;22.90;99.90
50606;DHT22;36557;53.572;10.170;2023-07-24T11:01:08;23.00;99.90
50606;DHT22;36557;53.572;10.170;2023-07-24T11:03:40;22.90;99.90
50606;DHT22;36557;53.572;10.170;2023-07-24T11:06:15;23.20;99.90
50606;DHT22;36557;53.572;10.170;2023-07-24T11:08:41;23.30;99.90
50606;DHT22;36557;53.572;10.170;2023-07-24T11:11:07;23.50;99.90
50606;DHT22;36557;53.572;10.170;2023-07-24T11:13:33;23.70;99.90
50606;DHT22;36557;53.572;10.170;2023-07-24T11:16:06;23.60;99.90
50606;DHT22;36557;53.572;10.170;2023-07-24T11:18:32;23.30;99.90
50606;DHT22;36557;53.572;10.170;2023-07-24T11:20:58;23.40;99.90
50606;DHT22;36557;53.572;10.170;2023-07-24T11:23:24;23.60;99.90
50606;DHT22;36557;53.572;10.170;2023-07-24T11:25:51;23.80;99.90
50606;DHT22;36557;53.572;10.170;2023-07-24T11:28:17;23.80;99.90
50606;DHT22;36557;53.572;10.170;2023-07-24T11:30:44;23.90;99.90
50606;DHT22;36557;53.572;10.170;2023-07-24T11:33:11;24.00;99.90
50606;DHT22;36557;53.572;10.170;2023-07-24T11:35:38;24.00;99.90
50606;DHT22;36557;53.572;10.170;2023-07-24T11:38:05;23.90;99.90
50606;DHT22;36557;53.572;10.170;2023-07-24T11:40:34;23.70;99.90
50606;DHT22;36557;53.572;10.170;2023-07-24T11:43:00;23.60;99.90
50606;DHT22;36557;53.572;10.170;2023-07-24T11:45:26;23.10;99.90
50606;DHT22;36557;53.572;10.170;2023-07-24T11:47:52;22.90;99.90
50606;DHT22;36557;53.572;10.170;2023-07-24T11:50:22;22.70;99.90
50606;DHT22;36557;53.572;10.170;2023-07-24T11:52:50;22.80;99.90
50606;DHT22;36557;53.572;10.170;2023-07-24T11:55:29;22.70;99.90
50606;DHT22;36557;53.572;10.170;2023-07-24T11:58:00;22.70;99.90
50606;DHT22;36557;53.572;10.170;2023-07-24T12:00:26;22.90;99.90
50606;DHT22;36557;53.572;10.170;2023-07-24T12:02:53;23.80;99.90
50606;DHT22;36557;53.572;10.170;2023-07-24T12:05:19;24.20;99.90
50606;DHT22;36557;53.572;10.170;2023-07-24T12:07:45;24.30;99.90
50606;DHT22;36557;53.572;10.170;2023-07-24T12:10:12;25.20;99.90
50606;DHT22;36557;53.572;10.170;2023-07-24T12:15:05;25.40;99.90
50606;DHT22;36557;53.572;10.170;2023-07-24T12:17:30;25.40;99.90
50606;DHT22;36557;53.572;10.170;2023-07-24T12:19:56;24.90;99.60
50606;DHT22;36557;53.572;10.170;2023-07-24T12:22:22;24.70;99.90
50606;DHT22;36557;53.572;10.170;2023-07-24T12:24:48;24.40;99.90
50606;DHT22;36557;53.572;10.170;2023-07-24T12:27:13;24.80;99.90
50606;DHT22;36557;53.572;10.170;2023-07-24T12:29:39;24.70;99.90
50606;DHT22;36557;53.572;10.170;2023-07-24T12:32:05;24.80;99.90
50606;DHT22;36557;53.572;10.170;2023-07-24T12:34:31;25.10;99.90
50606;DHT22;36557;53.572;10.170;2023-07-24T12:36:57;25.50;99.90
50606;DHT22;36557;53.572;10.170;2023-07-24T12:39:23;25.60;99.90
50606;DHT22;36557;53.572;10.170;2023-07-24T12:41:48;25.50;99.30
50606;DHT22;36557;53.572;10.170;2023-07-24T12:44:14;25.60;98.90
50606;DHT22;36557;53.572;10.170;2023-07-24T12:46:40;25.40;98.90
50606;DHT22;36557;53.572;10.170;2023-07-24T12:49:05;25.30;99.30
50606;DHT22;36557;53.572;10.170;2023-07-24T12:51:31;25.50;99.90
50606;DHT22;36557;53.572;10.170;2023-07-24T12:53:57;25.30;98.60
50606;DHT22;36557;53.572;10.170;2023-07-24T12:56:23;25.40;98.10
50606;DHT22;36557;53.572;10.170;2023-07-24T12:58:48;25.80;98.80
50606;DHT22;36557;53.572;10.170;2023-07-24T13:01:14;25.30;98.00
50606;DHT22;36557;53.572;10.170;2023-07-24T13:03:40;25.40;98.80
50606;DHT22;36557;53.572;10.170;2023-07-24T13:06:05;24.70;98.10
50606;DHT22;36557;53.572;10.170;2023-07-24T13:08:31;25.40;98.40
50606;DHT22;36557;53.572;10.170;2023-07-24T13:10:57;25.80;98.10
50606;DHT22;36557;53.572;10.170;2023-07-24T13:13:22;25.80;97.30
50606;DHT22;36557;53.572;10.170;2023-07-24T13:15:48;25.90;97.90
50606;DHT22;36557;53.572;10.170;2023-07-24T13:18:16;26.40;97.30
50606;DHT22;36557;53.572;10.170;2023-07-24T13:20:42;26.30;96.80
50606;DHT22;36557;53.572;10.170;2023-07-24T13:23:08;26.30;97.00
50606;DHT22;36557;53.572;10.170;2023-07-24T13:25:34;26.60;97.00
50606;DHT22;36557;53.572;10.170;2023-07-24T13:27:59;26.20;95.00
50606;DHT22;36557;53.572;10.170;2023-07-24T13:30:25;26.20;96.30
50606;DHT22;36557;53.572;10.170;2023-07-24T13:32:51;26.30;95.90
50606;DHT22;36557;53.572;10.170;2023-07-24T13:35:16;27.10;97.10
50606;DHT22;36557;53.572;10.170;2023-07-24T13:37:42;27.30;96.70
50606;DHT22;36557;53.572;10.170;2023-07-24T13:40:08;26.60;95.90
50606;DHT22;36557;53.572;10.170;2023-07-24T13:42:34;26.90;96.90
50606;DHT22;36557;53.572;10.170;2023-07-24T13:45:00;26.70;96.60
50606;DHT22;36557;53.572;10.170;2023-07-24T13:47:25;26.60;96.50
50606;DHT22;36557;53.572;10.170;2023-07-24T13:49:51;26.00;96.30
50606;DHT22;36557;53.572;10.170;2023-07-24T13:52:17;25.90;96.90
50606;DHT22;36557;53.572;10.170;2023-07-24T13:54:43;26.00;96.80
50606;DHT22;36557;53.572;10.170;2023-07-24T13:57:08;25.50;96.00
50606;DHT22;36557;53.572;10.170;2023-07-24T13:59:37;25.40;97.70
50606;DHT22;36557;53.572;10.170;2023-07-24T14:02:06;25.20;97.30
50606;DHT22;36557;53.572;10.170;2023-07-24T14:04:32;25.00;97.30
50606;DHT22;36557;53.572;10.170;2023-07-24T14:06:57;24.60;96.80
50606;DHT22;36557;53.572;10.170;2023-07-24T14:09:23;24.60;97.70
50606;DHT22;36557;53.572;10.170;2023-07-24T14:11:49;24.80;97.30
50606;DHT22;36557;53.572;10.170;2023-07-24T14:14:17;25.00;97.40
50606;DHT22;36557;53.572;10.170;2023-07-24T14:16:43;25.00;96.80
50606;DHT22;36557;53.572;10.170;2023-07-24T14:19:09;24.90;96.70
50606;DHT22;36557;53.572;10.170;2023-07-24T14:21:34;24.90;98.20
50606;DHT22;36557;53.572;10.170;2023-07-24T14:24:00;25.10;97.30
50606;DHT22;36557;53.572;10.170;2023-07-24T14:26:26;25.40;97.10
50606;DHT22;36557;53.572;10.170;2023-07-24T14:28:52;25.40;96.90
50606;DHT22;36557;53.572;10.170;2023-07-24T14:31:18;24.90;97.30
50606;DHT22;36557;53.572;10.170;2023-07-24T14:33:43;25.00;97.40
50606;DHT22;36557;53.572;10.170;2023-07-24T14:36:09;25.50;97.90
50606;DHT22;36557;53.572;10.170;2023-07-24T14:38:34;25.40;97.60
50606;DHT22;36557;53.572;10.170;2023-07-24T14:41:00;25.00;98.10
50606;DHT22;36557;53.572;10.170;2023-07-24T14:43:26;24.80;99.00
50606;DHT22;36557;53.572;10.170;2023-07-24T14:45:51;24.50;98.90
50606;DHT22;36557;53.572;10.170;2023-07-24T14:48:17;24.20;99.30
50606;DHT22;36557;53.572;10.170;2023-07-24T14:50:43;24.10;99.40
50606;DHT22;36557;53.572;10.170;2023-07-24T14:53:09;23.90;99.30
50606;DHT22;36557;53.572;10.170;2023-07-24T14:55:34;23.90;99.90
50606;DHT22;36557;53.572;10.170;2023-07-24T14:58:00;23.90;99.90
50606;DHT22;36557;53.572;10.170;2023-07-24T15:00:26;23.90;99.60
50606;DHT22;36557;53.572;10.170;2023-07-24T15:02:51;23.90;99.20
50606;DHT22;36557;53.572;10.170;2023-07-24T15:05:18;23.80;99.50
50606;DHT22;36557;53.572;10.170;2023-07-24T15:07:44;23.90;99.10
50606;DHT22;36557;53.572;10.170;2023-07-24T15:10:09;23.90;99.70
50606;DHT22;36557;53.572;10.170;2023-07-24T15:12:35;23.90;99.80
50606;DHT22;36557;53.572;10.170;2023-07-24T15:15:01;24.00;99.90
50606;DHT22;36557;53.572;10.170;2023-07-24T15:17:26;23.70;99.60
50606;DHT22;36557;53.572;10.170;2023-07-24T15:19:52;23.70;99.90
50606;DHT22;36557;53.572;10.170;2023-07-24T15:22:18;23.90;99.90
50606;DHT22;36557;53.572;10.170;2023-07-24T15:24:44;23.80;99.90